sensor_id;sensor_type;location;lat;lon;timestamp;temperature;humidity
23156;DHT22;11746;50.876;4.246;2022-10-16T00:00:39;14.50;99.90
23156;DHT22;11746;50.876;4.246;2022-10-16T00:03:07;14.60;99.90
23156;DHT22;11746;50.876;4.246;2022-10-16T00:05:33;14.60;99.90
23156;DHT22;11746;50.876;4.246;2022-10-16T00:08:03;14.50;99.90
23156;DHT22;11746;50.876;4.246;2022-10-16T00:10:29;14.40;99.90
23156;DHT22;11746;50.876;4.246;2022-10-16T00:12:55;14.40;99.90
23156;DHT22;11746;50.876;4.246;2022-10-16T00:15:22;14.50;99.90
23156;DHT22;11746;50.876;4.246;2022-10-16T00:17:47;14.60;99.90
23156;DHT22;11746;50.876;4.246;2022-10-16T00:20:13;14.50;99.90
23156;DHT22;11746;50.876;4.246;2022-10-16T00:22:39;14.50;99.90
23156;DHT22;11746;50.876;4.246;2022-10-16T00:25:06;14.40;99.90
23156;DHT22;11746;50.876;4.246;2022-10-16T00:27:33;14.30;99.90
23156;DHT22;11746;50.876;4.246;2022-10-16T00:30:00;14.30;99.90
23156;DHT22;11746;50.876;4.246;2022-10-16T00:32:26;14.40;99.90
23156;DHT22;11746;50.876;4.246;2022-10-16T00:34:52;14.50;99.90
23156;DHT22;11746;50.876;4.246;2022-10-16T00:37:20;14.40;99.90
23156;DHT22;11746;50.876;4.246;2022-10-16T00:39:46;14.40;99.90
23156;DHT22;11746;50.876;4.246;2022-10-16T00:42:17;14.40;99.90
23156;DHT22;11746;50.876;4.246;2022-10-16T00:44:51;14.40;99.90
23156;DHT22;11746;50.876;4.246;2022-10-16T00:49:55;14.30;99.90
23156;DHT22;11746;50.876;4.246;2022-10-16T00:52:22;14.30;99.90
23156;DHT22;11746;50.876;4.246;2022-10-16T00:54:50;14.20;99.90
23156;DHT22;11746;50.876;4.246;2022-10-16T00:57:17;14.20;99.90
23156;DHT22;11746;50.876;4.246;2022-10-16T00:59:43;14.10;99.90
23156;DHT22;11746;50.876;4.246;2022-10-16T01:02:14;14.10;99.90
23156;DHT22;11746;50.876;4.246;2022-10-16T01:04:50;14.00;99.90
23156;DHT22;11746;50.876;4.246;2022-10-16T01:09:56;14.10;99.90
23156;DHT22;11746;50.876;4.246;2022-10-16T01:15:26;14.00;99.90
23156;DHT22;11746;50.876;4.246;2022-10-16T01:17:58;14.10;99.90
23156;DHT22;11746;50.876;4.246;2022-10-16T01:23:15;14.30;99.90
23156;DHT22;11746;50.876;4.246;2022-10-16T01:28:19;14.20;99.90
23156;DHT22;11746;50.876;4.246;2022-10-16T01:30:47;14.10;99.90
23156;DHT22;11746;50.876;4.246;2022-10-16T01:33:27;14.00;99.90
23156;DHT22;11746;50.876;4.246;2022-10-16T01:35:58;14.00;99.90
23156;DHT22;11746;50.876;4.246;2022-10-16T01:38:39;14.00;99.90
23156;DHT22;11746;50.876;4.246;2022-10-16T01:46:37;14.00;99.90
23156;DHT22;11746;50.876;4.246;2022-10-16T01:49:05;14.10;99.90
23156;DHT22;11746;50.876;4.246;2022-10-16T01:51:32;14.10;99.90
23156;DHT22;11746;50.876;4.246;2022-10-16T01:54:01;14.10;99.90
23156;DHT22;11746;50.876;4.246;2022-10-16T01:56:29;14.20;99.90
23156;DHT22;11746;50.876;4.246;2022-10-16T01:59:13;14.20;99.90
23156;DHT22;11746;50.876;4.246;2022-10-16T02:01:44;14.20;99.90
23156;DHT22;11746;50.876;4.246;2022-10-16T02:04:19;14.10;99.90
23156;DHT22;11746;50.876;4.246;2022-10-16T02:06:46;14.00;99.90
23156;DHT22;11746;50.876;4.246;2022-10-16T02:09:12;14.00;99.90
23156;DHT22;11746;50.876;4.246;2022-10-16T02:11:38;14.00;99.90
23156;DHT22;11746;50.876;4.246;2022-10-16T02:14:06;14.00;99.90
23156;DHT22;11746;50.876;4.246;2022-10-16T02:16:43;14.00;99.90
23156;DHT22;11746;50.876;4.246;2022-10-16T02:19:10;14.00;99.90
23156;DHT22;11746;50.876;4.246;2022-10-16T02:21:46;14.00;99.90
23156;DHT22;11746;50.876;4.246;2022-10-16T02:24:38;14.10;99.90
23156;DHT22;11746;50.876;4.246;2022-10-16T02:27:29;14.00;99.90
23156;DHT22;11746;50.876;4.246;2022-10-16T02:30:14;14.10;99.90
23156;DHT22;11746;50.876;4.246;2022-10-16T02:32:43;14.10;99.90
23156;DHT22;11746;50.876;4.246;2022-10-16T02:35:10;14.00;99.90
23156;DHT22;11746;50.876;4.246;2022-10-16T02:37:38;14.00;99.90
23156;DHT22;11746;50.876;4.246;2022-10-16T02:40:05;14.10;99.90
23156;DHT22;11746;50.876;4.246;2022-10-16T02:42:36;14.10;99.90
23156;DHT22;11746;50.876;4.246;2022-10-16T02:45:04;14.00;99.90
23156;DHT22;11746;50.876;4.246;2022-10-16T02:47:30;14.00;99.90
23156;DHT22;11746;50.876;4.246;2022-10-16T02:49:56;13.90;99.90
23156;DHT22;11746;50.876;4.246;2022-10-16T02:52:22;13.90;99.90
23156;DHT22;11746;50.876;4.246;2022-10-16T02:54:48;14.00;99.90
23156;DHT22;11746;50.876;4.246;2022-10-16T02:57:14;14.10;99.90
23156;DHT22;11746;50.876;4.246;2022-10-16T02:59:41;14.00;99.90
23156;DHT22;11746;50.876;4.246;2022-10-16T03:02:06;13.90;99.90
23156;DHT22;11746;50.876;4.246;2022-10-16T03:04:32;13.90;99.90
23156;DHT22;11746;50.876;4.246;2022-10-16T03:06:58;14.00;99.90
23156;DHT22;11746;50.876;4.246;2022-10-16T03:09:24;14.00;99.90
23156;DHT22;11746;50.876;4.246;2022-10-16T03:11:50;14.00;99.90
23156;DHT22;11746;50.876;4.246;2022-10-16T03:14:17;14.10;99.90
23156;DHT22;11746;50.876;4.246;2022-10-16T03:16:44;13.90;99.90
23156;DHT22;11746;50.876;4.246;2022-10-16T03:19:10;14.00;99.90
23156;DHT22;11746;50.876;4.246;2022-10-16T03:21:36;14.00;99.90
23156;DHT22;11746;50.876;4.246;2022-10-16T03:24:02;13.90;99.90
23156;DHT22;11746;50.876;4.246;2022-10-16T03:26:28;13.90;99.90
23156;DHT22;11746;50.876;4.246;2022-10-16T03:28:54;14.00;99.90
23156;DHT22;11746;50.876;4.246;2022-10-16T03:31:20;13.90;99.90
23156;DHT22;11746;50.876;4.246;2022-10-16T03:33:46;14.00;99.90
23156;DHT22;11746;50.876;4.246;2022-10-16T03:36:12;13.90;99.90
23156;DHT22;11746;50.876;4.246;2022-10-16T03:38:38;13.90;99.90
23156;DHT22;11746;50.876;4.246;2022-10-16T03:41:04;14.00;99.90
23156;DHT22;11746;50.876;4.246;2022-10-16T03:43:29;14.00;99.90
23156;DHT22;11746;50.876;4.246;2022-10-16T03:45:55;14.00;99.90
23156;DHT22;11746;50.876;4.246;2022-10-16T03:48:22;14.00;99.90
23156;DHT22;11746;50.876;4.246;2022-10-16T03:50:47;14.10;99.90
23156;DHT22;11746;50.876;4.246;2022-10-16T03:53:14;14.00;99.90
23156;DHT22;11746;50.876;4.246;2022-10-16T03:55:44;14.00;99.90
23156;DHT22;11746;50.876;4.246;2022-10-16T03:58:11;13.90;99.90
23156;DHT22;11746;50.876;4.246;2022-10-16T04:00:41;13.90;99.90
23156;DHT22;11746;50.876;4.246;2022-10-16T04:03:07;13.90;99.90
23156;DHT22;11746;50.876;4.246;2022-10-16T04:05:33;14.00;99.90
23156;DHT22;11746;50.876;4.246;2022-10-16T04:07:59;13.90;99.90
23156;DHT22;11746;50.876;4.246;2022-10-16T04:10:25;13.90;99.90
23156;DHT22;11746;50.876;4.246;2022-10-16T04:12:51;14.00;99.90
23156;DHT22;11746;50.876;4.246;2022-10-16T04:15:20;13.90;99.90
23156;DHT22;11746;50.876;4.246;2022-10-16T04:17:46;13.90;99.90
23156;DHT22;11746;50.876;4.246;2022-10-16T04:20:12;13.90;99.90
23156;DHT22;11746;50.876;4.246;2022-10-16T04:22:38;13.80;99.90
23156;DHT22;11746;50.876;4.246;2022-10-16T04:25:05;13.90;99.90
23156;DHT22;11746;50.876;4.246;2022-10-16T04:27:31;13.90;99.90
23156;DHT22;11746;50.876;4.246;2022-10-16T04:30:00;13.90;99.90
23156;DHT22;11746;50.876;4.246;2022-10-16T04:32:27;14.00;99.90
23156;DHT22;11746;50.876;4.246;2022-10-16T04:34:53;14.00;99.90
23156;DHT22;11746;50.876;4.246;2022-10-16T04:37:24;14.00;99.90
23156;DHT22;11746;50.876;4.246;2022-10-16T04:39:51;14.00;99.90
23156;DHT22;11746;50.876;4.246;2022-10-16T04:42:17;14.00;99.90
23156;DHT22;11746;50.876;4.246;2022-10-16T04:44:43;14.00;99.90
23156;DHT22;11746;50.876;4.246;2022-10-16T04:47:10;13.90;99.90
23156;DHT22;11746;50.876;4.246;2022-10-16T04:49:36;13.90;99.90
23156;DHT22;11746;50.876;4.246;2022-10-16T04:52:02;13.80;99.90
23156;DHT22;11746;50.876;4.246;2022-10-16T04:54:29;13.80;99.90
23156;DHT22;11746;50.876;4.246;2022-10-16T04:56:55;13.90;99.90
23156;DHT22;11746;50.876;4.246;2022-10-16T04:59:23;13.90;99.90
23156;DHT22;11746;50.876;4.246;2022-10-16T05:01:49;13.80;99.90
23156;DHT22;11746;50.876;4.246;2022-10-16T05:04:16;13.70;99.90
23156;DHT22;11746;50.876;4.246;2022-10-16T05:06:43;13.70;99.90
23156;DHT22;11746;50.876;4.246;2022-10-16T05:09:09;13.70;99.90
23156;DHT22;11746;50.876;4.246;2022-10-16T05:11:35;13.60;99.90
23156;DHT22;11746;50.876;4.246;2022-10-16T05:14:02;13.70;99.90
23156;DHT22;11746;50.876;4.246;2022-10-16T05:16:29;13.70;99.90
23156;DHT22;11746;50.876;4.246;2022-10-16T05:18:56;13.70;99.90
23156;DHT22;11746;50.876;4.246;2022-10-16T05:21:22;13.70;99.90
23156;DHT22;11746;50.876;4.246;2022-10-16T05:23:49;13.70;99.90
23156;DHT22;11746;50.876;4.246;2022-10-16T05:26:15;13.80;99.90
23156;DHT22;11746;50.876;4.246;2022-10-16T05:28:42;13.70;99.90
23156;DHT22;11746;50.876;4.246;2022-10-16T05:31:09;13.70;99.90
23156;DHT22;11746;50.876;4.246;2022-10-16T05:33:36;13.60;99.90
23156;DHT22;11746;50.876;4.246;2022-10-16T05:36:04;13.70;99.90
23156;DHT22;11746;50.876;4.246;2022-10-16T05:38:30;13.70;99.90
23156;DHT22;11746;50.876;4.246;2022-10-16T05:40:56;13.70;99.90
23156;DHT22;11746;50.876;4.246;2022-10-16T05:43:22;13.80;99.90
23156;DHT22;11746;50.876;4.246;2022-10-16T05:46:02;13.80;99.90
23156;DHT22;11746;50.876;4.246;2022-10-16T05:48:29;13.70;99.90
23156;DHT22;11746;50.876;4.246;2022-10-16T05:51:02;13.70;99.90
23156;DHT22;11746;50.876;4.246;2022-10-16T05:53:30;13.70;99.90
23156;DHT22;11746;50.876;4.246;2022-10-16T05:55:56;13.70;99.90
23156;DHT22;11746;50.876;4.246;2022-10-16T05:58:23;13.80;99.90
23156;DHT22;11746;50.876;4.246;2022-10-16T06:00:55;13.80;99.90
23156;DHT22;11746;50.876;4.246;2022-10-16T06:03:21;13.90;99.90
23156;DHT22;11746;50.876;4.246;2022-10-16T06:05:47;13.90;99.90
23156;DHT22;11746;50.876;4.246;2022-10-16T06:08:13;13.70;99.90
23156;DHT22;11746;50.876;4.246;2022-10-16T06:10:39;13.60;99.90
23156;DHT22;11746;50.876;4.246;2022-10-16T06:13:05;13.70;99.90
23156;DHT22;11746;50.876;4.246;2022-10-16T06:15:31;13.60;99.90
23156;DHT22;11746;50.876;4.246;2022-10-16T06:17:57;13.60;99.90
23156;DHT22;11746;50.876;4.246;2022-10-16T06:20:23;13.60;99.90
23156;DHT22;11746;50.876;4.246;2022-10-16T06:22:49;13.70;99.90
23156;DHT22;11746;50.876;4.246;2022-10-16T06:25:14;13.70;99.90
23156;DHT22;11746;50.876;4.246;2022-10-16T06:27:41;13.70;99.90
23156;DHT22;11746;50.876;4.246;2022-10-16T06:30:07;13.70;99.90
23156;DHT22;11746;50.876;4.246;2022-10-16T06:32:34;13.70;99.90
23156;DHT22;11746;50.876;4.246;2022-10-16T06:35:00;13.60;99.90
23156;DHT22;11746;50.876;4.246;2022-10-16T06:37:27;13.80;99.90
23156;DHT22;11746;50.876;4.246;2022-10-16T06:39:53;13.90;99.90
23156;DHT22;11746;50.876;4.246;2022-10-16T06:42:19;13.80;99.90
23156;DHT22;11746;50.876;4.246;2022-10-16T06:44:45;13.80;99.90
23156;DHT22;11746;50.876;4.246;2022-10-16T06:47:11;13.80;99.90
23156;DHT22;11746;50.876;4.246;2022-10-16T06:49:37;14.10;99.90
23156;DHT22;11746;50.876;4.246;2022-10-16T06:52:03;14.10;99.90
23156;DHT22;11746;50.876;4.246;2022-10-16T06:54:29;14.10;99.90
23156;DHT22;11746;50.876;4.246;2022-10-16T06:56:55;14.10;99.90
23156;DHT22;11746;50.876;4.246;2022-10-16T06:59:21;14.10;99.90
23156;DHT22;11746;50.876;4.246;2022-10-16T07:01:47;14.10;99.90
23156;DHT22;11746;50.876;4.246;2022-10-16T07:04:13;14.10;99.90
23156;DHT22;11746;50.876;4.246;2022-10-16T07:06:40;14.00;99.90
23156;DHT22;11746;50.876;4.246;2022-10-16T07:09:08;13.90;99.90
23156;DHT22;11746;50.876;4.246;2022-10-16T07:11:39;14.00;99.90
23156;DHT22;11746;50.876;4.246;2022-10-16T07:14:17;14.00;99.90
23156;DHT22;11746;50.876;4.246;2022-10-16T07:16:43;14.10;99.90
23156;DHT22;11746;50.876;4.246;2022-10-16T07:19:10;14.00;99.90
23156;DHT22;11746;50.876;4.246;2022-10-16T07:21:38;14.10;99.90
23156;DHT22;11746;50.876;4.246;2022-10-16T07:24:07;14.10;99.90
23156;DHT22;11746;50.876;4.246;2022-10-16T07:26:35;14.10;99.90
23156;DHT22;11746;50.876;4.246;2022-10-16T07:29:01;14.20;99.90
23156;DHT22;11746;50.876;4.246;2022-10-16T07:31:27;14.40;99.90
23156;DHT22;11746;50.876;4.246;2022-10-16T07:33:53;14.40;99.90
23156;DHT22;11746;50.876;4.246;2022-10-16T07:36:26;14.50;99.90
23156;DHT22;11746;50.876;4.246;2022-10-16T07:38:52;14.60;99.90
23156;DHT22;11746;50.876;4.246;2022-10-16T07:41:19;14.70;99.90
23156;DHT22;11746;50.876;4.246;2022-10-16T07:43:51;14.70;99.90
23156;DHT22;11746;50.876;4.246;2022-10-16T07:46:19;14.80;99.90
23156;DHT22;11746;50.876;4.246;2022-10-16T07:48:46;14.80;99.90
23156;DHT22;11746;50.876;4.246;2022-10-16T07:51:16;14.70;99.90
23156;DHT22;11746;50.876;4.246;2022-10-16T07:53:43;14.80;99.90
23156;DHT22;11746;50.876;4.246;2022-10-16T07:56:10;14.80;99.90
23156;DHT22;11746;50.876;4.246;2022-10-16T07:58:37;14.90;99.90
23156;DHT22;11746;50.876;4.246;2022-10-16T08:01:09;15.00;99.90
23156;DHT22;11746;50.876;4.246;2022-10-16T08:03:36;15.00;99.90
23156;DHT22;11746;50.876;4.246;2022-10-16T08:06:03;15.00;99.90
23156;DHT22;11746;50.876;4.246;2022-10-16T08:08:30;15.20;99.90
23156;DHT22;11746;50.876;4.246;2022-10-16T08:10:57;15.00;99.90
23156;DHT22;11746;50.876;4.246;2022-10-16T08:13:23;15.10;99.90
23156;DHT22;11746;50.876;4.246;2022-10-16T08:15:49;15.10;99.90
23156;DHT22;11746;50.876;4.246;2022-10-16T08:18:16;15.20;99.90
23156;DHT22;11746;50.876;4.246;2022-10-16T08:20:43;15.30;99.90
23156;DHT22;11746;50.876;4.246;2022-10-16T08:23:11;15.30;99.90
23156;DHT22;11746;50.876;4.246;2022-10-16T08:25:38;15.30;99.90
23156;DHT22;11746;50.876;4.246;2022-10-16T08:28:06;15.40;99.90
23156;DHT22;11746;50.876;4.246;2022-10-16T08:30:32;15.50;99.90
23156;DHT22;11746;50.876;4.246;2022-10-16T08:32:59;15.60;99.90
23156;DHT22;11746;50.876;4.246;2022-10-16T08:35:25;15.80;99.90
23156;DHT22;11746;50.876;4.246;2022-10-16T08:37:51;15.90;99.90
23156;DHT22;11746;50.876;4.246;2022-10-16T08:40:30;15.80;99.90
23156;DHT22;11746;50.876;4.246;2022-10-16T08:48:27;15.80;99.90
23156;DHT22;11746;50.876;4.246;2022-10-16T08:50:56;15.90;99.90
23156;DHT22;11746;50.876;4.246;2022-10-16T08:53:31;15.90;99.90
23156;DHT22;11746;50.876;4.246;2022-10-16T08:56:00;16.10;99.90
23156;DHT22;11746;50.876;4.246;2022-10-16T08:58:30;16.20;99.90
23156;DHT22;11746;50.876;4.246;2022-10-16T09:01:00;16.20;99.90
23156;DHT22;11746;50.876;4.246;2022-10-16T09:03:40;16.30;99.90
23156;DHT22;11746;50.876;4.246;2022-10-16T09:09:51;16.30;99.90
23156;DHT22;11746;50.876;4.246;2022-10-16T09:12:26;16.30;99.90
23156;DHT22;11746;50.876;4.246;2022-10-16T09:21:09;16.60;99.90
23156;DHT22;11746;50.876;4.246;2022-10-16T09:23:39;16.70;99.90
23156;DHT22;11746;50.876;4.246;2022-10-16T09:26:09;16.80;99.90
23156;DHT22;11746;50.876;4.246;2022-10-16T09:28:36;16.80;99.90
23156;DHT22;11746;50.876;4.246;2022-10-16T09:31:02;16.80;99.90
23156;DHT22;11746;50.876;4.246;2022-10-16T09:33:39;16.80;99.90
23156;DHT22;11746;50.876;4.246;2022-10-16T09:36:06;16.80;99.90
23156;DHT22;11746;50.876;4.246;2022-10-16T09:38:34;16.80;99.90
23156;DHT22;11746;50.876;4.246;2022-10-16T09:41:03;16.80;99.90
23156;DHT22;11746;50.876;4.246;2022-10-16T09:43:45;16.60;99.90
23156;DHT22;11746;50.876;4.246;2022-10-16T09:46:32;16.70;99.90
23156;DHT22;11746;50.876;4.246;2022-10-16T09:49:02;16.80;99.90
23156;DHT22;11746;50.876;4.246;2022-10-16T09:51:34;17.00;99.90
23156;DHT22;11746;50.876;4.246;2022-10-16T09:56:37;16.90;99.90
23156;DHT22;11746;50.876;4.246;2022-10-16T09:59:13;17.00;99.90
23156;DHT22;11746;50.876;4.246;2022-10-16T10:01:53;17.00;99.90
23156;DHT22;11746;50.876;4.246;2022-10-16T10:04:24;17.20;99.90
23156;DHT22;11746;50.876;4.246;2022-10-16T10:06:53;17.40;99.90
23156;DHT22;11746;50.876;4.246;2022-10-16T10:11:54;17.60;99.90
23156;DHT22;11746;50.876;4.246;2022-10-16T10:14:39;17.80;99.90
23156;DHT22;11746;50.876;4.246;2022-10-16T10:22:43;18.00;99.90
23156;DHT22;11746;50.876;4.246;2022-10-16T10:27:47;17.70;99.90
23156;DHT22;11746;50.876;4.246;2022-10-16T10:30:27;17.80;99.90
23156;DHT22;11746;50.876;4.246;2022-10-16T10:38:24;17.90;99.90
23156;DHT22;11746;50.876;4.246;2022-10-16T10:55:15;18.50;99.90
23156;DHT22;11746;50.876;4.246;2022-10-16T11:00:23;18.50;99.90
23156;DHT22;11746;50.876;4.246;2022-10-16T11:05:59;18.70;99.90
23156;DHT22;11746;50.876;4.246;2022-10-16T11:08:32;18.60;99.90
23156;DHT22;11746;50.876;4.246;2022-10-16T11:11:03;18.40;99.90
23156;DHT22;11746;50.876;4.246;2022-10-16T11:13:46;18.60;99.90
23156;DHT22;11746;50.876;4.246;2022-10-16T11:16:38;18.70;99.90
23156;DHT22;11746;50.876;4.246;2022-10-16T11:24:54;19.30;99.90
23156;DHT22;11746;50.876;4.246;2022-10-16T11:27:39;19.40;99.90
23156;DHT22;11746;50.876;4.246;2022-10-16T11:30:24;19.40;99.90
23156;DHT22;11746;50.876;4.246;2022-10-16T11:33:49;19.30;99.90
23156;DHT22;11746;50.876;4.246;2022-10-16T11:38:43;19.10;99.90
23156;DHT22;11746;50.876;4.246;2022-10-16T11:43:58;19.10;99.90
23156;DHT22;11746;50.876;4.246;2022-10-16T11:46:29;19.30;99.90
23156;DHT22;11746;50.876;4.246;2022-10-16T11:49:03;19.40;99.90
23156;DHT22;11746;50.876;4.246;2022-10-16T11:51:45;19.60;99.90
23156;DHT22;11746;50.876;4.246;2022-10-16T11:57:20;19.50;99.90
23156;DHT22;11746;50.876;4.246;2022-10-16T12:05:11;19.20;99.90
23156;DHT22;11746;50.876;4.246;2022-10-16T12:07:46;19.10;99.90
23156;DHT22;11746;50.876;4.246;2022-10-16T12:10:27;19.40;99.90
23156;DHT22;11746;50.876;4.246;2022-10-16T12:12:54;19.40;99.90
23156;DHT22;11746;50.876;4.246;2022-10-16T12:15:29;19.70;99.90
23156;DHT22;11746;50.876;4.246;2022-10-16T12:17:57;19.80;99.90
23156;DHT22;11746;50.876;4.246;2022-10-16T12:20:30;19.90;99.90
23156;DHT22;11746;50.876;4.246;2022-10-16T12:23:03;20.00;99.90
23156;DHT22;11746;50.876;4.246;2022-10-16T12:25:38;19.80;99.90
23156;DHT22;11746;50.876;4.246;2022-10-16T12:28:20;19.90;99.90
23156;DHT22;11746;50.876;4.246;2022-10-16T12:31:13;20.20;99.90
23156;DHT22;11746;50.876;4.246;2022-10-16T12:34:01;20.10;99.90
23156;DHT22;11746;50.876;4.246;2022-10-16T12:36:32;19.90;99.90
23156;DHT22;11746;50.876;4.246;2022-10-16T12:39:00;19.90;99.90
23156;DHT22;11746;50.876;4.246;2022-10-16T12:41:32;19.80;99.90
23156;DHT22;11746;50.876;4.246;2022-10-16T12:43:59;19.90;99.90
23156;DHT22;11746;50.876;4.246;2022-10-16T12:46:38;19.60;99.90
23156;DHT22;11746;50.876;4.246;2022-10-16T12:49:22;19.40;99.90
23156;DHT22;11746;50.876;4.246;2022-10-16T12:51:49;19.40;99.90
23156;DHT22;11746;50.876;4.246;2022-10-16T12:54:22;19.30;99.90
23156;DHT22;11746;50.876;4.246;2022-10-16T13:05:57;19.70;99.90
23156;DHT22;11746;50.876;4.246;2022-10-16T13:14:51;20.80;99.90
23156;DHT22;11746;50.876;4.246;2022-10-16T13:25:34;21.00;99.90
23156;DHT22;11746;50.876;4.246;2022-10-16T13:28:06;21.10;99.90
23156;DHT22;11746;50.876;4.246;2022-10-16T13:30:43;20.80;99.90
23156;DHT22;11746;50.876;4.246;2022-10-16T13:36:22;20.50;99.90
23156;DHT22;11746;50.876;4.246;2022-10-16T13:39:12;20.60;99.90
23156;DHT22;11746;50.876;4.246;2022-10-16T13:41:38;20.50;99.90
23156;DHT22;11746;50.876;4.246;2022-10-16T13:44:08;20.20;99.90
23156;DHT22;11746;50.876;4.246;2022-10-16T13:46:37;20.20;99.90
23156;DHT22;11746;50.876;4.246;2022-10-16T13:49:05;19.90;99.90
23156;DHT22;11746;50.876;4.246;2022-10-16T13:51:32;19.90;99.90
23156;DHT22;11746;50.876;4.246;2022-10-16T13:53:59;19.90;99.90
23156;DHT22;11746;50.876;4.246;2022-10-16T13:56:27;19.90;99.90
23156;DHT22;11746;50.876;4.246;2022-10-16T13:59:07;19.80;99.90
23156;DHT22;11746;50.876;4.246;2022-10-16T14:01:47;19.70;99.90
23156;DHT22;11746;50.876;4.246;2022-10-16T14:04:14;19.80;99.90
23156;DHT22;11746;50.876;4.246;2022-10-16T14:06:42;19.90;99.90
23156;DHT22;11746;50.876;4.246;2022-10-16T14:09:29;20.00;99.90
23156;DHT22;11746;50.876;4.246;2022-10-16T14:12:01;20.00;99.90
23156;DHT22;11746;50.876;4.246;2022-10-16T14:14:55;19.80;99.90
23156;DHT22;11746;50.876;4.246;2022-10-16T14:17:28;19.50;99.90
23156;DHT22;11746;50.876;4.246;2022-10-16T14:19:59;19.60;99.90
23156;DHT22;11746;50.876;4.246;2022-10-16T14:22:42;19.60;99.90
23156;DHT22;11746;50.876;4.246;2022-10-16T14:28:19;19.90;99.90
23156;DHT22;11746;50.876;4.246;2022-10-16T14:30:58;19.90;99.90
23156;DHT22;11746;50.876;4.246;2022-10-16T14:33:33;19.90;99.90
23156;DHT22;11746;50.876;4.246;2022-10-16T14:36:26;20.00;99.90
23156;DHT22;11746;50.876;4.246;2022-10-16T14:39:14;19.80;99.90
23156;DHT22;11746;50.876;4.246;2022-10-16T14:41:48;19.80;99.90
23156;DHT22;11746;50.876;4.246;2022-10-16T14:44:18;19.80;99.90
23156;DHT22;11746;50.876;4.246;2022-10-16T14:46:45;19.80;99.90
23156;DHT22;11746;50.876;4.246;2022-10-16T14:51:39;19.90;99.90
23156;DHT22;11746;50.876;4.246;2022-10-16T14:54:14;19.90;99.90
23156;DHT22;11746;50.876;4.246;2022-10-16T14:56:47;19.80;99.90
23156;DHT22;11746;50.876;4.246;2022-10-16T15:00:02;19.70;99.90
23156;DHT22;11746;50.876;4.246;2022-10-16T15:02:30;19.80;99.90
23156;DHT22;11746;50.876;4.246;2022-10-16T15:04:58;19.80;99.90
23156;DHT22;11746;50.876;4.246;2022-10-16T15:07:27;19.90;99.90
23156;DHT22;11746;50.876;4.246;2022-10-16T15:09:54;19.90;99.90
23156;DHT22;11746;50.876;4.246;2022-10-16T15:12:20;19.60;99.90
23156;DHT22;11746;50.876;4.246;2022-10-16T15:14:46;19.60;99.90
23156;DHT22;11746;50.876;4.246;2022-10-16T15:17:12;19.60;99.90
23156;DHT22;11746;50.876;4.246;2022-10-16T15:19:39;19.60;99.90
23156;DHT22;11746;50.876;4.246;2022-10-16T15:22:05;19.50;99.90
23156;DHT22;11746;50.876;4.246;2022-10-16T15:24:31;19.50;99.90
23156;DHT22;11746;50.876;4.246;2022-10-16T15:26:57;19.60;99.90
23156;DHT22;11746;50.876;4.246;2022-10-16T15:29:22;19.50;99.90
23156;DHT22;11746;50.876;4.246;2022-10-16T15:31:49;19.50;99.90
23156;DHT22;11746;50.876;4.246;2022-10-16T15:34:16;19.50;99.90
23156;DHT22;11746;50.876;4.246;2022-10-16T15:36:43;19.50;99.90
23156;DHT22;11746;50.876;4.246;2022-10-16T15:41:41;19.50;99.90
23156;DHT22;11746;50.876;4.246;2022-10-16T15:44:07;19.50;99.90
23156;DHT22;11746;50.876;4.246;2022-10-16T15:46:34;19.40;99.90
23156;DHT22;11746;50.876;4.246;2022-10-16T15:49:01;19.40;99.90
23156;DHT22;11746;50.876;4.246;2022-10-16T15:51:28;19.20;99.90
23156;DHT22;11746;50.876;4.246;2022-10-16T15:53:56;19.30;99.90
23156;DHT22;11746;50.876;4.246;2022-10-16T15:56:22;19.20;99.90
23156;DHT22;11746;50.876;4.246;2022-10-16T15:58:54;19.10;99.90
23156;DHT22;11746;50.876;4.246;2022-10-16T16:01:21;19.20;99.90
23156;DHT22;11746;50.876;4.246;2022-10-16T16:03:48;19.20;99.90
23156;DHT22;11746;50.876;4.246;2022-10-16T16:06:17;19.10;99.90
23156;DHT22;11746;50.876;4.246;2022-10-16T16:08:44;18.90;99.90
23156;DHT22;11746;50.876;4.246;2022-10-16T16:11:13;19.00;99.90
23156;DHT22;11746;50.876;4.246;2022-10-16T16:13:39;18.90;99.90
23156;DHT22;11746;50.876;4.246;2022-10-16T16:16:07;18.80;99.90
23156;DHT22;11746;50.876;4.246;2022-10-16T16:18:34;18.70;99.90
23156;DHT22;11746;50.876;4.246;2022-10-16T16:21:00;18.70;99.90
23156;DHT22;11746;50.876;4.246;2022-10-16T16:23:26;18.70;99.90
23156;DHT22;11746;50.876;4.246;2022-10-16T16:26:23;18.70;99.90
23156;DHT22;11746;50.876;4.246;2022-10-16T16:28:52;18.70;99.90
23156;DHT22;11746;50.876;4.246;2022-10-16T16:31:19;18.70;99.90
23156;DHT22;11746;50.876;4.246;2022-10-16T16:33:46;18.60;99.90
23156;DHT22;11746;50.876;4.246;2022-10-16T16:36:12;18.60;99.90
23156;DHT22;11746;50.876;4.246;2022-10-16T16:38:38;18.60;99.90
23156;DHT22;11746;50.876;4.246;2022-10-16T16:41:16;18.70;99.90
23156;DHT22;11746;50.876;4.246;2022-10-16T16:43:42;18.70;99.90
23156;DHT22;11746;50.876;4.246;2022-10-16T16:46:09;18.70;99.90
23156;DHT22;11746;50.876;4.246;2022-10-16T16:48:37;18.70;99.90
23156;DHT22;11746;50.876;4.246;2022-10-16T16:51:05;18.60;99.90
23156;DHT22;11746;50.876;4.246;2022-10-16T16:53:34;18.60;99.90
23156;DHT22;11746;50.876;4.246;2022-10-16T16:56:04;18.90;99.90
23156;DHT22;11746;50.876;4.246;2022-10-16T16:58:32;18.90;99.90
23156;DHT22;11746;50.876;4.246;2022-10-16T17:00:58;18.80;99.90
23156;DHT22;11746;50.876;4.246;2022-10-16T17:03:33;18.70;99.90
23156;DHT22;11746;50.876;4.246;2022-10-16T17:06:07;18.50;99.90
23156;DHT22;11746;50.876;4.246;2022-10-16T17:08:37;18.40;99.90
23156;DHT22;11746;50.876;4.246;2022-10-16T17:11:04;18.40;99.90
23156;DHT22;11746;50.876;4.246;2022-10-16T17:13:32;18.40;99.90
23156;DHT22;11746;50.876;4.246;2022-10-16T17:16:06;18.30;99.90
23156;DHT22;11746;50.876;4.246;2022-10-16T17:18:33;18.30;99.90
23156;DHT22;11746;50.876;4.246;2022-10-16T17:21:01;18.10;99.90
23156;DHT22;11746;50.876;4.246;2022-10-16T17:23:28;17.90;99.90
23156;DHT22;11746;50.876;4.246;2022-10-16T17:25:55;18.00;99.90
23156;DHT22;11746;50.876;4.246;2022-10-16T17:28:21;18.00;99.90
23156;DHT22;11746;50.876;4.246;2022-10-16T17:30:48;18.00;99.90
23156;DHT22;11746;50.876;4.246;2022-10-16T17:33:15;17.80;99.90
23156;DHT22;11746;50.876;4.246;2022-10-16T17:35:44;17.80;99.90
23156;DHT22;11746;50.876;4.246;2022-10-16T17:38:12;17.80;99.90
23156;DHT22;11746;50.876;4.246;2022-10-16T17:40:39;17.70;99.90
23156;DHT22;11746;50.876;4.246;2022-10-16T17:43:05;17.70;99.90
23156;DHT22;11746;50.876;4.246;2022-10-16T17:45:35;17.60;99.90
23156;DHT22;11746;50.876;4.246;2022-10-16T17:48:01;17.50;99.90
23156;DHT22;11746;50.876;4.246;2022-10-16T17:50:27;17.60;99.90
23156;DHT22;11746;50.876;4.246;2022-10-16T17:52:53;17.30;99.90